RJSM(METAR)
02/28 07:00
METAR RJSM 272200Z 22005KT 9999 FEW030 M07/M12 Q1028 RMK 1CU030
A3036=
戻る
トップページへ戻る
IMOC Co,.Ltd.